Time;durP1;ratioP1;P1;durP2;ratioP2;P2;SDS_P1;SDS_P2;PMS_P1;PMS_P2;Temp;Humidity;BMP_temperature;BMP_pressure;BME280_temperature;BME280_humidity;BME280_pressure;Samples;Min_cycle;Max_cycle;Signal;HPM_P1;HPM_P2
2021/10/11 00:01:09;;;;;;;49.85;20.63;;;;;;;;;;5054982;28;20110;-92
2021/10/11 00:03:34;;;;;;;48.65;19.65;;;;;;;;;;5079545;28;20025;-91
2021/10/11 00:06:00;;;;;;;48.88;19.55;;;;;;;;;;5051512;28;20114;-91
2021/10/11 00:08:25;;;;;;;46.25;19.55;;;;;;;;;;5075072;28;20116;-91
2021/10/11 00:10:51;;;;;;;44.80;19.10;;;;;;;;;;5085386;28;20025;-91
2021/10/11 00:13:20;;;;;;;49.50;20.95;;;;;;;;;;5072968;28;20061;-91
2021/10/11 00:15:45;;;;;;;44.08;18.60;;;;;;;;;;5079774;28;20063;-91
2021/10/11 00:18:10;;;;;;;47.45;18.58;;;;;;;;;;5051991;28;20531;-90
2021/10/11 00:20:36;;;;;;;45.13;20.25;;;;;;;;;;5080854;28;20013;-91
2021/10/11 00:23:01;;;;;;;42.33;18.20;;;;;;;;;;5071659;28;20020;-91
2021/10/11 00:25:26;;;;;;;43.30;18.17;;;;;;;;;;5054830;28;20489;-91
2021/10/11 00:27:51;;;;;;;43.13;18.50;;;;;;;;;;5081281;28;20029;-91
2021/10/11 00:30:17;;;;;;;37.35;16.27;;;;;;;;;;5051731;28;20051;-91
2021/10/11 00:32:42;;;;;;;40.13;17.25;;;;;;;;;;5082290;28;20111;-91
2021/10/11 00:35:08;;;;;;;39.92;18.45;;;;;;;;;;5050436;28;20388;-91
2021/10/11 00:37:33;;;;;;;40.88;17.17;;;;;;;;;;5072408;28;20380;-91
2021/10/11 00:39:58;;;;;;;50.42;19.52;;;;;;;;;;5055041;28;20074;-91
2021/10/11 00:42:24;;;;;;;35.33;16.55;;;;;;;;;;5054675;28;20050;-91
2021/10/11 00:44:49;;;;;;;39.53;15.63;;;;;;;;;;5083891;28;20108;-91
2021/10/11 00:47:14;;;;;;;34.42;15.32;;;;;;;;;;5052134;28;20071;-91
2021/10/11 00:49:39;;;;;;;38.33;17.13;;;;;;;;;;5074430;28;20031;-91
2021/10/11 00:52:05;;;;;;;31.48;14.60;;;;;;;;;;5059272;28;20039;-91
2021/10/11 00:54:30;;;;;;;31.40;15.02;;;;;;;;;;5058717;28;20040;-90
2021/10/11 00:56:56;;;;;;;31.75;14.32;;;;;;;;;;5077320;28;20077;-91
2021/10/11 00:59:21;;;;;;;37.58;15.70;;;;;;;;;;5054194;28;20112;-91
2021/10/11 01:01:46;;;;;;;28.63;13.10;;;;;;;;;;5058771;28;20025;-91
2021/10/11 01:04:12;;;;;;;29.83;13.07;;;;;;;;;;5085537;28;20043;-91
2021/10/11 01:06:42;;;;;;;31.70;13.38;;;;;;;;;;5056996;28;20021;-91
2021/10/11 01:09:09;;;;;;;25.85;12.70;;;;;;;;;;5090493;28;20429;-90
2021/10/11 01:11:35;;;;;;;21.52;11.23;;;;;;;;;;5078931;28;20129;-90
2021/10/11 01:14:00;;;;;;;28.30;12.75;;;;;;;;;;5050476;28;20056;-91
2021/10/11 01:16:25;;;;;;;28.08;11.55;;;;;;;;;;5076304;28;20103;-90
2021/10/11 01:18:50;;;;;;;26.30;11.55;;;;;;;;;;5083385;28;20448;-91
2021/10/11 01:21:16;;;;;;;22.42;10.30;;;;;;;;;;5058074;28;20024;-91
2021/10/11 01:23:41;;;;;;;20.33;9.48;;;;;;;;;;5076216;28;20077;-89
2021/10/11 01:26:06;;;;;;;20.73;10.18;;;;;;;;;;5050680;28;20025;-92
2021/10/11 01:28:31;;;;;;;17.90;8.75;;;;;;;;;;5058394;28;20100;-91
2021/10/11 01:30:57;;;;;;;16.05;8.82;;;;;;;;;;5076046;28;20070;-91
2021/10/11 01:33:22;;;;;;;18.80;9.15;;;;;;;;;;5076231;28;20074;-91
2021/10/11 01:35:47;;;;;;;19.35;8.75;;;;;;;;;;5058282;28;20048;-90
2021/10/11 01:38:13;;;;;;;18.55;7.60;;;;;;;;;;5058185;28;20016;-91
2021/10/11 01:40:38;;;;;;;22.45;8.88;;;;;;;;;;5057502;28;20025;-91
2021/10/11 01:43:05;;;;;;;15.60;7.82;;;;;;;;;;5057546;28;20077;-92
2021/10/11 01:45:31;;;;;;;17.05;8.63;;;;;;;;;;5057894;28;20027;-91
2021/10/11 01:47:56;;;;;;;15.13;7.68;;;;;;;;;;5058065;28;20025;-91
2021/10/11 01:50:21;;;;;;;12.75;6.82;;;;;;;;;;5075979;28;20448;-91
2021/10/11 01:52:46;;;;;;;17.52;6.90;;;;;;;;;;5057850;28;20016;-91
2021/10/11 01:55:11;;;;;;;13.38;6.75;;;;;;;;;;5057480;28;20043;-91
2021/10/11 01:57:37;;;;;;;13.38;6.70;;;;;;;;;;5057214;28;20531;-91
2021/10/11 02:00:03;;;;;;;15.07;6.45;;;;;;;;;;5077377;28;20032;-90
2021/10/11 02:02:28;;;;;;;12.70;6.03;;;;;;;;;;5057073;28;20024;-91
2021/10/11 02:04:54;;;;;;;12.80;6.93;;;;;;;;;;5057669;28;20486;-91
2021/10/11 02:07:19;;;;;;;12.63;6.20;;;;;;;;;;5057386;28;20032;-89
2021/10/11 02:09:48;;;;;;;16.30;6.07;;;;;;;;;;5057449;28;20025;-91
2021/10/11 02:12:13;;;;;;;10.38;5.18;;;;;;;;;;5057310;28;20021;-91
2021/10/11 02:14:39;;;;;;;15.18;5.97;;;;;;;;;;5057332;28;20107;-91
2021/10/11 02:17:04;;;;;;;11.38;5.47;;;;;;;;;;5075246;28;20414;-91
2021/10/11 02:19:29;;;;;;;10.55;5.25;;;;;;;;;;5056990;28;20519;-91
2021/10/11 02:21:54;;;;;;;12.73;5.22;;;;;;;;;;5075077;28;20017;-91
2021/10/11 02:24:19;;;;;;;10.65;5.03;;;;;;;;;;5057264;28;20059;-91
2021/10/11 02:26:45;;;;;;;13.38;5.53;;;;;;;;;;5055188;28;20370;-91
2021/10/11 02:29:10;;;;;;;9.43;5.10;;;;;;;;;;5071273;28;20040;-91
2021/10/11 02:31:35;;;;;;;10.57;4.65;;;;;;;;;;5054795;28;20460;-91
2021/10/11 02:34:00;;;;;;;12.60;4.75;;;;;;;;;;5056581;28;20056;-91
2021/10/11 02:36:25;;;;;;;12.52;4.32;;;;;;;;;;5057014;28;20023;-91
2021/10/11 02:38:51;;;;;;;12.18;4.38;;;;;;;;;;5054518;28;20471;-90
2021/10/11 02:41:16;;;;;;;11.55;4.38;;;;;;;;;;5071208;28;20021;-91
2021/10/11 02:43:41;;;;;;;8.30;4.20;;;;;;;;;;5074363;28;20032;-90
2021/10/11 02:46:06;;;;;;;8.48;3.80;;;;;;;;;;5056906;28;20020;-91
2021/10/11 02:48:32;;;;;;;9.18;4.28;;;;;;;;;;5056741;28;20036;-92
2021/10/11 02:50:58;;;;;;;8.15;3.92;;;;;;;;;;5056532;28;20027;-91
2021/10/11 02:53:23;;;;;;;6.13;3.33;;;;;;;;;;5074794;28;20039;-91
2021/10/11 02:55:48;;;;;;;16.75;3.85;;;;;;;;;;5056595;28;20025;-91
2021/10/11 02:58:13;;;;;;;10.75;3.47;;;;;;;;;;5056763;28;20025;-91
2021/10/11 03:00:38;;;;;;;8.85;3.38;;;;;;;;;;5056464;28;20413;-91
2021/10/11 03:03:04;;;;;;;9.63;3.50;;;;;;;;;;5056476;28;20056;-91
2021/10/11 03:05:29;;;;;;;10.93;3.70;;;;;;;;;;5056209;28;20043;-91
2021/10/11 03:07:54;;;;;;;9.68;3.75;;;;;;;;;;5056102;28;20443;-91
2021/10/11 03:10:19;;;;;;;7.25;3.45;;;;;;;;;;5056282;28;20020;-91
2021/10/11 03:12:45;;;;;;;6.95;3.47;;;;;;;;;;5056250;28;20483;-90
2021/10/11 03:15:10;;;;;;;8.63;3.53;;;;;;;;;;5056104;28;20032;-91
2021/10/11 03:17:35;;;;;;;7.65;3.63;;;;;;;;;;5056265;28;20356;-90
2021/10/11 03:20:00;;;;;;;7.28;3.38;;;;;;;;;;5049175;28;20017;-91
2021/10/11 03:22:27;;;;;;;7.28;3.13;;;;;;;;;;5056237;28;20024;-91
2021/10/11 03:24:52;;;;;;;5.93;3.05;;;;;;;;;;5055921;28;20034;-91
2021/10/11 03:27:17;;;;;;;6.22;3.15;;;;;;;;;;5055846;28;20016;-91
2021/10/11 03:29:42;;;;;;;9.75;3.38;;;;;;;;;;5055826;28;20543;-91
2021/10/11 03:32:08;;;;;;;4.53;2.75;;;;;;;;;;5056430;28;20108;-91
2021/10/11 03:34:33;;;;;;;5.47;2.72;;;;;;;;;;5055888;28;20027;-90
2021/10/11 03:36:58;;;;;;;8.50;3.45;;;;;;;;;;5073071;28;20019;-91
2021/10/11 03:39:23;;;;;;;7.45;3.15;;;;;;;;;;5055612;28;20456;-90
2021/10/11 03:41:48;;;;;;;7.00;3.15;;;;;;;;;;5055644;28;20020;-91
2021/10/11 03:44:14;;;;;;;22.48;3.47;;;;;;;;;;5055729;28;20020;-91
2021/10/11 03:46:39;;;;;;;6.78;2.65;;;;;;;;;;5055733;28;20024;-91
2021/10/11 03:49:04;;;;;;;8.10;3.20;;;;;;;;;;5055476;28;20032;-91
2021/10/11 03:51:29;;;;;;;6.63;2.42;;;;;;;;;;5055432;28;20397;-91
2021/10/11 03:53:55;;;;;;;7.88;3.33;;;;;;;;;;5055563;28;20029;-89
2021/10/11 03:56:21;;;;;;;7.55;2.80;;;;;;;;;;5056205;28;20016;-91
2021/10/11 03:58:46;;;;;;;6.13;2.83;;;;;;;;;;5055560;28;20024;-91
2021/10/11 04:01:11;;;;;;;6.05;2.75;;;;;;;;;;5055381;28;20028;-91
2021/10/11 04:03:37;;;;;;;4.80;2.42;;;;;;;;;;5055644;28;20123;-91
2021/10/11 04:06:02;;;;;;;3.85;2.15;;;;;;;;;;5055078;28;20035;-90
2021/10/11 04:08:38;;;;;;;7.10;2.63;;;;;;;;;;5055339;28;20013;-91
2021/10/11 04:13:35;;;;;;;4.75;2.45;;;;;;;;;;5066231;28;20101;-91
2021/10/11 04:16:00;;;;;;;7.88;3.10;;;;;;;;;;5073376;28;20053;-91
2021/10/11 04:18:26;;;;;;;5.88;3.10;;;;;;;;;;5055445;28;20032;-91
2021/10/11 04:20:51;;;;;;;8.68;2.72;;;;;;;;;;5055362;28;20036;-91
2021/10/11 04:23:16;;;;;;;7.38;2.67;;;;;;;;;;5073106;28;20059;-91
2021/10/11 04:25:42;;;;;;;10.30;2.55;;;;;;;;;;5054895;28;20021;-91
2021/10/11 04:28:08;;;;;;;4.78;2.75;;;;;;;;;;5055265;28;20023;-91
2021/10/11 04:30:34;;;;;;;4.38;2.40;;;;;;;;;;5055338;28;20028;-91
2021/10/11 04:32:59;;;;;;;8.50;2.47;;;;;;;;;;5055409;28;20028;-92
2021/10/11 04:35:25;;;;;;;3.53;2.05;;;;;;;;;;5079302;28;20044;-91
2021/10/11 04:37:50;;;;;;;6.28;2.47;;;;;;;;;;5054701;28;20041;-91
2021/10/11 04:40:16;;;;;;;4.85;2.03;;;;;;;;;;5072926;28;20025;-91
2021/10/11 04:42:41;;;;;;;8.00;2.88;;;;;;;;;;5055051;28;20059;-91
2021/10/11 04:45:06;;;;;;;3.67;2.08;;;;;;;;;;5047257;28;20032;-90
2021/10/11 04:47:32;;;;;;;6.95;2.08;;;;;;;;;;5054984;28;20675;-91
2021/10/11 04:49:57;;;;;;;4.70;2.45;;;;;;;;;;5055173;28;20116;-91
2021/10/11 04:52:22;;;;;;;6.68;2.92;;;;;;;;;;5054806;28;20111;-91
2021/10/11 04:54:48;;;;;;;6.50;2.50;;;;;;;;;;5055055;28;20525;-91
2021/10/11 04:57:13;;;;;;;5.70;2.83;;;;;;;;;;5054999;28;20021;-91
2021/10/11 04:59:38;;;;;;;5.47;2.10;;;;;;;;;;5054997;28;20020;-91
2021/10/11 05:02:03;;;;;;;4.20;2.00;;;;;;;;;;5054569;28;20078;-91
2021/10/11 05:04:28;;;;;;;5.72;2.80;;;;;;;;;;5054436;28;20024;-91
2021/10/11 05:06:54;;;;;;;8.30;2.33;;;;;;;;;;5054921;28;20020;-91
2021/10/11 05:09:19;;;;;;;5.00;2.40;;;;;;;;;;5055112;28;20035;-91
2021/10/11 05:11:44;;;;;;;4.70;2.03;;;;;;;;;;5054760;28;20032;-91
2021/10/11 05:14:09;;;;;;;7.28;2.42;;;;;;;;;;5072702;28;20021;-91
2021/10/11 05:16:36;;;;;;;6.65;2.63;;;;;;;;;;5054726;28;20009;-91
2021/10/11 05:19:01;;;;;;;6.70;2.63;;;;;;;;;;5053260;28;20020;-91
2021/10/11 05:21:26;;;;;;;7.03;2.90;;;;;;;;;;5054831;28;20027;-91
2021/10/11 05:23:51;;;;;;;6.82;2.80;;;;;;;;;;5054892;28;20098;-91
2021/10/11 05:26:17;;;;;;;4.18;2.10;;;;;;;;;;5054959;28;20051;-91
2021/10/11 05:28:42;;;;;;;7.95;2.25;;;;;;;;;;5054422;28;20048;-90
2021/10/11 05:31:07;;;;;;;5.45;1.98;;;;;;;;;;5049496;28;20020;-91
2021/10/11 05:33:33;;;;;;;4.78;2.63;;;;;;;;;;5055000;28;20055;-91
2021/10/11 05:35:59;;;;;;;8.43;3.05;;;;;;;;;;5054254;28;20066;-91
2021/10/11 05:38:24;;;;;;;9.05;2.83;;;;;;;;;;5074422;28;20017;-91
2021/10/11 05:40:49;;;;;;;6.82;2.92;;;;;;;;;;5058130;28;20116;-91
2021/10/11 05:43:14;;;;;;;6.45;2.85;;;;;;;;;;5057276;28;20028;-91
2021/10/11 05:45:39;;;;;;;6.07;2.90;;;;;;;;;;5075739;28;20027;-91
2021/10/11 05:48:05;;;;;;;5.65;2.70;;;;;;;;;;5057994;28;20029;-91
2021/10/11 05:50:30;;;;;;;6.40;2.60;;;;;;;;;;5075686;28;20021;-91
2021/10/11 05:52:55;;;;;;;10.98;2.78;;;;;;;;;;5075522;28;20102;-91
2021/10/11 05:55:21;;;;;;;7.60;3.00;;;;;;;;;;5057583;28;20109;-91
2021/10/11 05:57:46;;;;;;;8.48;2.78;;;;;;;;;;5075735;28;20044;-91
2021/10/11 06:00:11;;;;;;;6.72;3.10;;;;;;;;;;5075401;28;20020;-91
2021/10/11 06:02:36;;;;;;;8.68;3.60;;;;;;;;;;5057652;28;20024;-91
2021/10/11 06:05:02;;;;;;;8.18;3.17;;;;;;;;;;5075474;28;20037;-91
2021/10/11 06:07:28;;;;;;;9.38;3.25;;;;;;;;;;5057622;28;20517;-90
2021/10/11 06:09:54;;;;;;;8.10;3.10;;;;;;;;;;5057720;28;20203;-91
2021/10/11 06:12:19;;;;;;;8.90;3.30;;;;;;;;;;5057341;28;20024;-90
2021/10/11 06:14:44;;;;;;;6.22;3.00;;;;;;;;;;5057341;28;20460;-91
2021/10/11 06:17:09;;;;;;;7.10;2.95;;;;;;;;;;5057431;28;20020;-91
2021/10/11 06:19:34;;;;;;;8.25;3.05;;;;;;;;;;5051928;28;20356;-91
2021/10/11 06:22:00;;;;;;;6.97;2.80;;;;;;;;;;5057380;28;20024;-91
2021/10/11 06:24:25;;;;;;;6.05;3.10;;;;;;;;;;5057035;28;20033;-91
2021/10/11 06:26:50;;;;;;;9.73;2.92;;;;;;;;;;5057394;28;20028;-91
2021/10/11 06:29:15;;;;;;;8.80;3.25;;;;;;;;;;5057040;28;20020;-90
2021/10/11 06:31:41;;;;;;;4.53;2.80;;;;;;;;;;5057125;28;20387;-91
2021/10/11 06:34:06;;;;;;;6.55;3.30;;;;;;;;;;5057215;28;20028;-91
2021/10/11 06:36:34;;;;;;;4.60;3.00;;;;;;;;;;5056401;28;20415;-91
2021/10/11 06:39:00;;;;;;;9.13;2.78;;;;;;;;;;5074950;28;20028;-91
2021/10/11 06:41:25;;;;;;;4.55;2.85;;;;;;;;;;5054452;28;20047;-91
2021/10/11 06:43:51;;;;;;;6.07;2.60;;;;;;;;;;5056527;28;20025;-91
2021/10/11 06:46:16;;;;;;;6.15;3.20;;;;;;;;;;5056720;28;20082;-90
2021/10/11 06:48:41;;;;;;;9.65;2.70;;;;;;;;;;5074005;28;20024;-91
2021/10/11 06:51:06;;;;;;;6.57;2.78;;;;;;;;;;5056943;28;20388;-91
2021/10/11 06:53:31;;;;;;;7.32;2.60;;;;;;;;;;5056645;28;20024;-90
2021/10/11 06:55:57;;;;;;;7.50;3.35;;;;;;;;;;5055847;28;20430;-91
2021/10/11 06:58:22;;;;;;;11.77;3.55;;;;;;;;;;5056597;28;20471;-91
2021/10/11 07:00:47;;;;;;;7.78;3.50;;;;;;;;;;5074244;28;20168;-90
2021/10/11 07:03:12;;;;;;;4.70;2.90;;;;;;;;;;5056972;28;20043;-91
2021/10/11 07:05:37;;;;;;;10.52;3.25;;;;;;;;;;5056175;28;20044;-89
2021/10/11 07:08:08;;;;;;;4.88;2.60;;;;;;;;;;5056555;28;20078;-91
2021/10/11 07:10:34;;;;;;;5.10;2.72;;;;;;;;;;5056656;28;20450;-91
2021/10/11 07:12:59;;;;;;;4.32;2.65;;;;;;;;;;5056458;28;20115;-91
2021/10/11 07:15:24;;;;;;;8.20;3.05;;;;;;;;;;5074106;28;20385;-91
2021/10/11 07:17:49;;;;;;;4.82;2.80;;;;;;;;;;5055662;28;20070;-91
2021/10/11 07:20:15;;;;;;;4.63;2.97;;;;;;;;;;5056307;28;20025;-90
2021/10/11 07:22:41;;;;;;;6.13;2.85;;;;;;;;;;5056014;28;20082;-90
2021/10/11 07:25:06;;;;;;;7.75;3.13;;;;;;;;;;5074131;28;20046;-91
2021/10/11 07:27:31;;;;;;;6.20;3.25;;;;;;;;;;5056080;28;20036;-91
2021/10/11 07:29:57;;;;;;;4.95;2.78;;;;;;;;;;5055750;28;20024;-91
2021/10/11 07:32:22;;;;;;;8.68;2.95;;;;;;;;;;5056127;28;20028;-91
2021/10/11 07:34:47;;;;;;;9.88;2.85;;;;;;;;;;5055758;28;20021;-91
2021/10/11 07:37:12;;;;;;;8.90;2.88;;;;;;;;;;5055993;28;20174;-91
2021/10/11 07:39:37;;;;;;;14.43;3.58;;;;;;;;;;5056044;28;20052;-91
2021/10/11 07:42:03;;;;;;;11.60;2.95;;;;;;;;;;5055791;28;20073;-91
2021/10/11 07:44:29;;;;;;;6.18;3.42;;;;;;;;;;5055925;28;20017;-91
2021/10/11 07:46:54;;;;;;;12.15;4.13;;;;;;;;;;5055366;28;20485;-91
2021/10/11 07:49:20;;;;;;;9.05;3.83;;;;;;;;;;5055767;28;20021;-91
2021/10/11 07:51:46;;;;;;;13.95;5.28;;;;;;;;;;5055751;28;20021;-91
2021/10/11 07:54:11;;;;;;;11.02;3.85;;;;;;;;;;5055536;28;20020;-91
2021/10/11 07:56:41;;;;;;;10.70;4.57;;;;;;;;;;5050508;28;20051;-91
2021/10/11 07:59:06;;;;;;;10.23;4.45;;;;;;;;;;5054745;28;20012;-91
2021/10/11 08:01:34;;;;;;;9.35;4.32;;;;;;;;;;5054939;28;20035;-91
2021/10/11 08:03:59;;;;;;;10.35;2.92;;;;;;;;;;5073255;28;20452;-90
2021/10/11 08:06:24;;;;;;;10.70;3.03;;;;;;;;;;5055056;28;20035;-91
2021/10/11 08:08:49;;;;;;;7.15;2.92;;;;;;;;;;5054642;28;20016;-91
2021/10/11 08:11:15;;;;;;;11.90;3.25;;;;;;;;;;5086388;28;20380;-91
2021/10/11 08:13:40;;;;;;;10.48;3.03;;;;;;;;;;5073056;28;20464;-91
2021/10/11 08:16:06;;;;;;;8.70;2.80;;;;;;;;;;5068912;28;20013;-91
2021/10/11 08:18:31;;;;;;;7.55;3.55;;;;;;;;;;5069833;28;20467;-91
2021/10/11 08:20:56;;;;;;;7.75;2.55;;;;;;;;;;5051835;28;20066;-90
2021/10/11 08:23:22;;;;;;;5.95;2.22;;;;;;;;;;5060055;28;20032;-91
2021/10/11 08:25:47;;;;;;;4.60;2.05;;;;;;;;;;5073092;28;20349;-90
2021/10/11 08:28:12;;;;;;;7.65;2.53;;;;;;;;;;5056861;28;20020;-89
2021/10/11 08:30:37;;;;;;;6.90;2.58;;;;;;;;;;5054936;28;20424;-90
2021/10/11 08:33:03;;;;;;;9.80;3.38;;;;;;;;;;5073982;28;20066;-89
2021/10/11 08:35:28;;;;;;;11.32;2.97;;;;;;;;;;5059157;28;20013;-90
2021/10/11 08:37:53;;;;;;;13.57;3.38;;;;;;;;;;5055908;28;20024;-90
2021/10/11 08:40:20;;;;;;;15.23;2.88;;;;;;;;;;5056740;28;20027;-89
2021/10/11 08:42:46;;;;;;;10.57;2.90;;;;;;;;;;5061674;28;20024;-90
2021/10/11 08:45:11;;;;;;;3.58;2.10;;;;;;;;;;5059457;28;20468;-90
2021/10/11 08:47:36;;;;;;;8.68;2.63;;;;;;;;;;5055383;28;20027;-90
2021/10/11 08:50:03;;;;;;;8.93;3.00;;;;;;;;;;5067326;28;20035;-90
2021/10/11 08:52:28;;;;;;;9.30;3.15;;;;;;;;;;5056194;28;20028;-90
2021/10/11 08:54:54;;;;;;;7.20;3.15;;;;;;;;;;5055204;28;20017;-90
2021/10/11 08:57:19;;;;;;;12.38;3.35;;;;;;;;;;5072679;28;20372;-90
2021/10/11 08:59:44;;;;;;;10.63;2.83;;;;;;;;;;5054608;28;20555;-90
2021/10/11 09:02:10;;;;;;;9.40;3.10;;;;;;;;;;5059975;28;20480;-89
2021/10/11 09:04:56;;;;;;;8.57;2.97;;;;;;;;;;5065854;28;20024;-90
2021/10/11 09:07:26;;;;;;;13.18;3.28;;;;;;;;;;5054713;28;20111;-91
2021/10/11 09:09:52;;;;;;;8.00;3.35;;;;;;;;;;5055745;28;20020;-90
2021/10/11 09:12:18;;;;;;;8.93;3.28;;;;;;;;;;5057581;28;20499;-90
2021/10/11 09:14:46;;;;;;;7.85;3.10;;;;;;;;;;5075519;28;20017;-90
2021/10/11 09:17:20;;;;;;;11.73;3.55;;;;;;;;;;5091444;28;20020;-90
2021/10/11 09:19:57;;;;;;;4.22;2.55;;;;;;;;;;5076881;28;20012;-90
2021/10/11 09:22:30;;;;;;;10.35;2.90;;;;;;;;;;5058306;28;20103;-90
2021/10/11 09:24:58;;;;;;;14.05;3.15;;;;;;;;;;5057329;28;20122;-90
2021/10/11 09:27:24;;;;;;;8.93;3.47;;;;;;;;;;5064446;28;20020;-90
2021/10/11 09:29:49;;;;;;;13.38;3.60;;;;;;;;;;5059607;28;20047;-90
2021/10/11 09:32:14;;;;;;;9.38;3.03;;;;;;;;;;5076345;28;20013;-94
2021/10/11 09:34:40;;;;;;;10.15;3.05;;;;;;;;;;5059132;28;20376;-93
2021/10/11 09:37:06;;;;;;;15.05;3.30;;;;;;;;;;5059160;28;20024;-93
2021/10/11 09:39:34;;;;;;;14.18;3.55;;;;;;;;;;5059165;28;20016;-93
2021/10/11 09:41:59;;;;;;;11.88;3.67;;;;;;;;;;5058627;28;20042;-92
2021/10/11 09:44:25;;;;;;;10.18;3.60;;;;;;;;;;5058505;28;20523;-92
2021/10/11 09:46:57;;;;;;;18.50;4.18;;;;;;;;;;5058576;28;20545;-92
2021/10/11 09:49:23;;;;;;;13.25;3.35;;;;;;;;;;5066383;28;20028;-92
2021/10/11 09:51:48;;;;;;;12.85;3.75;;;;;;;;;;5058354;28;20052;-92
2021/10/11 09:54:15;;;;;;;11.45;3.58;;;;;;;;;;5046336;28;20032;-94
2021/10/11 09:56:40;;;;;;;12.85;3.20;;;;;;;;;;5058681;28;20024;-94
2021/10/11 09:59:08;;;;;;;13.57;3.63;;;;;;;;;;5058640;28;20016;-94
2021/10/11 10:01:33;;;;;;;14.38;3.95;;;;;;;;;;5058486;28;20341;-91
2021/10/11 10:03:59;;;;;;;7.35;3.20;;;;;;;;;;5059805;28;20028;-91
2021/10/11 10:06:28;;;;;;;14.50;4.18;;;;;;;;;;5065011;28;20024;-92
2021/10/11 10:08:54;;;;;;;14.60;3.95;;;;;;;;;;5070322;28;20042;-90
2021/10/11 10:11:23;;;;;;;11.77;3.35;;;;;;;;;;5063241;28;20032;-91
2021/10/11 10:13:49;;;;;;;12.30;3.75;;;;;;;;;;5057620;28;20020;-91
2021/10/11 10:16:15;;;;;;;11.13;3.53;;;;;;;;;;5064494;28;20023;-91
2021/10/11 10:18:41;;;;;;;6.45;2.95;;;;;;;;;;5067588;28;20446;-91
2021/10/11 10:21:07;;;;;;;13.35;3.35;;;;;;;;;;5057808;28;20364;-91
2021/10/11 10:23:33;;;;;;;12.68;3.65;;;;;;;;;;5057083;28;20058;-91
2021/10/11 10:26:00;;;;;;;10.38;3.40;;;;;;;;;;5057462;28;20013;-91
2021/10/11 10:28:25;;;;;;;14.68;3.22;;;;;;;;;;5065685;28;20028;-91
2021/10/11 10:31:01;;;;;;;12.02;3.28;;;;;;;;;;5050633;28;20008;-91
2021/10/11 10:33:42;;;;;;;15.32;3.30;;;;;;;;;;5058959;28;20020;-91
2021/10/11 10:36:20;;;;;;;11.40;2.97;;;;;;;;;;5068487;28;20198;-91
2021/10/11 10:38:57;;;;;;;12.10;3.70;;;;;;;;;;5063114;28;20116;-92
2021/10/11 10:41:23;;;;;;;9.40;3.42;;;;;;;;;;5083577;28;20124;-92
2021/10/11 10:43:48;;;;;;;14.23;3.60;;;;;;;;;;5060708;28;20052;-91
2021/10/11 10:46:13;;;;;;;18.95;4.05;;;;;;;;;;5065172;28;20036;-91
2021/10/11 10:48:52;;;;;;;11.32;3.13;;;;;;;;;;5058023;28;20021;-92
2021/10/11 10:51:18;;;;;;;10.05;2.63;;;;;;;;;;5048126;28;20112;-91
2021/10/11 10:53:54;;;;;;;19.48;3.78;;;;;;;;;;5075756;28;20025;-91
2021/10/11 10:56:20;;;;;;;11.43;3.30;;;;;;;;;;5057119;28;20464;-91
2021/10/11 10:58:46;;;;;;;13.40;3.63;;;;;;;;;;5056712;28;20028;-92
2021/10/11 11:01:11;;;;;;;13.55;3.08;;;;;;;;;;5089779;28;20460;-91
2021/10/11 11:03:37;;;;;;;14.98;3.55;;;;;;;;;;5058142;28;20063;-92
2021/10/11 11:06:05;;;;;;;11.18;2.92;;;;;;;;;;5075995;28;20127;-91
2021/10/11 11:08:31;;;;;;;14.40;3.22;;;;;;;;;;5074185;28;20349;-90
2021/10/11 11:10:59;;;;;;;16.98;3.60;;;;;;;;;;5056711;28;20027;-91
2021/10/11 11:13:24;;;;;;;10.57;3.15;;;;;;;;;;5056561;28;20387;-91
2021/10/11 11:15:51;;;;;;;7.68;3.33;;;;;;;;;;5056029;28;20020;-91
2021/10/11 11:18:21;;;;;;;12.35;2.90;;;;;;;;;;5056506;28;20491;-92
2021/10/11 11:20:48;;;;;;;10.55;2.85;;;;;;;;;;5056092;28;20119;-91
2021/10/11 11:23:19;;;;;;;8.00;2.80;;;;;;;;;;5056173;28;20115;-92
2021/10/11 11:25:46;;;;;;;11.32;3.10;;;;;;;;;;5056286;28;20024;-92
2021/10/11 11:28:12;;;;;;;10.98;2.22;;;;;;;;;;5056162;28;20037;-91
2021/10/11 11:30:38;;;;;;;10.27;2.17;;;;;;;;;;5055798;28;20030;-92
2021/10/11 11:33:07;;;;;;;17.60;1.98;;;;;;;;;;5055697;28;20387;-92
2021/10/11 11:35:43;;;;;;;14.45;2.17;;;;;;;;;;5055004;28;20028;-92
2021/10/11 11:38:10;;;;;;;13.75;2.03;;;;;;;;;;5073834;28;20498;-92
2021/10/11 11:40:40;;;;;;;11.05;1.63;;;;;;;;;;5055776;28;20070;-91
2021/10/11 11:43:06;;;;;;;5.55;1.35;;;;;;;;;;5073619;28;20555;-91
2021/10/11 11:45:45;;;;;;;8.48;2.17;;;;;;;;;;5051940;28;20024;-92
2021/10/11 11:48:14;;;;;;;6.72;1.77;;;;;;;;;;5080732;28;20518;-92
2021/10/11 11:50:40;;;;;;;9.38;1.58;;;;;;;;;;5055715;28;20059;-91
2021/10/11 11:53:09;;;;;;;13.55;1.90;;;;;;;;;;5055457;28;20029;-91
2021/10/11 11:55:35;;;;;;;15.38;2.17;;;;;;;;;;5053596;28;20016;-92
2021/10/11 11:58:00;;;;;;;8.98;1.50;;;;;;;;;;5055340;28;20760;-91
2021/10/11 12:00:26;;;;;;;10.85;1.40;;;;;;;;;;5055387;28;20403;-91
2021/10/11 12:02:52;;;;;;;15.93;1.70;;;;;;;;;;5055671;28;20023;-92
2021/10/11 12:05:18;;;;;;;4.35;1.30;;;;;;;;;;5055273;28;20093;-92
2021/10/11 12:07:43;;;;;;;14.80;1.98;;;;;;;;;;5055682;28;20039;-92
2021/10/11 12:10:16;;;;;;;6.78;2.30;;;;;;;;;;5055736;28;20024;-92
2021/10/11 12:12:41;;;;;;;11.57;1.70;;;;;;;;;;5055066;28;20028;-92
2021/10/11 12:15:16;;;;;;;8.05;1.85;;;;;;;;;;5055368;28;20444;-92
2021/10/11 12:17:41;;;;;;;13.98;2.00;;;;;;;;;;5055367;28;20024;-92
2021/10/11 12:20:07;;;;;;;5.35;1.20;;;;;;;;;;5055269;28;20460;-92
2021/10/11 12:22:32;;;;;;;8.00;1.42;;;;;;;;;;5055356;28;20067;-92
2021/10/11 12:25:03;;;;;;;12.07;1.48;;;;;;;;;;5055680;28;20043;-92
2021/10/11 12:27:28;;;;;;;8.45;1.40;;;;;;;;;;5055381;28;20032;-91
2021/10/11 12:29:54;;;;;;;7.93;1.30;;;;;;;;;;5055284;28;20384;-91
2021/10/11 12:32:27;;;;;;;4.68;0.70;;;;;;;;;;5054977;28;20036;-92
2021/10/11 12:34:52;;;;;;;7.72;1.00;;;;;;;;;;5051020;28;20062;-91
2021/10/11 12:37:17;;;;;;;11.20;1.40;;;;;;;;;;5070127;28;20021;-92
2021/10/11 12:39:44;;;;;;;5.18;1.00;;;;;;;;;;5055197;28;20016;-91
2021/10/11 12:42:19;;;;;;;15.40;1.58;;;;;;;;;;5054912;28;20020;-92
2021/10/11 12:44:47;;;;;;;5.90;1.02;;;;;;;;;;5055360;28;20021;-92
2021/10/11 12:47:23;;;;;;;5.75;0.85;;;;;;;;;;5075472;28;20020;-91
2021/10/11 12:49:52;;;;;;;4.72;0.73;;;;;;;;;;5051918;28;20024;-92
2021/10/11 12:52:17;;;;;;;7.93;1.15;;;;;;;;;;5058875;28;20025;-92
2021/10/11 12:54:42;;;;;;;7.13;0.80;;;;;;;;;;5059214;28;20095;-92
2021/10/11 12:57:07;;;;;;;7.80;1.10;;;;;;;;;;5058628;28;20797;-92
2021/10/11 12:59:33;;;;;;;8.63;1.02;;;;;;;;;;5058925;28;20566;-92
2021/10/11 13:01:59;;;;;;;8.57;0.90;;;;;;;;;;5058859;28;20040;-92
2021/10/11 13:04:24;;;;;;;5.32;1.05;;;;;;;;;;5058939;28;20467;-92
2021/10/11 13:06:50;;;;;;;10.80;1.40;;;;;;;;;;5059287;28;20017;-92
2021/10/11 13:09:16;;;;;;;5.32;0.90;;;;;;;;;;5058753;28;20027;-91
2021/10/11 13:11:41;;;;;;;6.15;1.08;;;;;;;;;;5058265;28;20039;-92
2021/10/11 13:14:09;;;;;;;3.30;1.10;;;;;;;;;;5058817;28;20043;-92
2021/10/11 13:16:34;;;;;;;7.38;1.10;;;;;;;;;;5058675;28;20043;-91
2021/10/11 13:18:59;;;;;;;4.68;0.98;;;;;;;;;;5058578;28;20480;-92
2021/10/11 13:21:25;;;;;;;3.47;0.82;;;;;;;;;;5053702;28;20017;-92
2021/10/11 13:23:50;;;;;;;10.82;0.90;;;;;;;;;;5082646;28;20021;-92
2021/10/11 13:26:15;;;;;;;5.40;0.90;;;;;;;;;;5076283;28;20012;-92
2021/10/11 13:28:48;;;;;;;5.82;1.02;;;;;;;;;;5058284;28;20025;-92
2021/10/11 13:34:23;;;;;;;5.95;0.80;;;;;;;;;;5076112;28;20020;-91
2021/10/11 13:46:23;;;;;;;5.55;0.73;;;;;;;;;;5076230;28;20024;-92
2021/10/11 14:27:54;;;;;;;12.48;0.88;;;;;;;;;;5071506;28;20499;-91
2021/10/11 16:00:14;;;;;;;4.25;0.82;;;;;;;;;;5065470;28;20028;-91
2021/10/11 16:02:41;;;;;;;6.00;0.70;;;;;;;;;;5057468;28;20111;-92
2021/10/11 16:05:07;;;;;;;3.88;0.65;;;;;;;;;;5072637;28;20028;-92
2021/10/11 16:07:32;;;;;;;7.85;1.20;;;;;;;;;;5063401;28;20527;-92
2021/10/11 16:09:58;;;;;;;1.60;0.57;;;;;;;;;;5055880;28;20032;-92
2021/10/11 16:12:23;;;;;;;5.55;0.93;;;;;;;;;;5055249;28;20032;-91
2021/10/11 16:14:48;;;;;;;2.85;0.70;;;;;;;;;;5055833;28;20012;-92
2021/10/11 16:17:14;;;;;;;4.55;0.88;;;;;;;;;;5062090;28;20115;-91
2021/10/11 16:19:39;;;;;;;4.35;0.63;;;;;;;;;;5050067;28;20017;-92
2021/10/11 16:22:04;;;;;;;2.95;0.73;;;;;;;;;;5058016;28;20028;-91
2021/10/11 16:24:29;;;;;;;9.80;0.90;;;;;;;;;;5055972;28;20020;-91
2021/10/11 16:26:55;;;;;;;5.05;0.90;;;;;;;;;;5063835;28;20028;-92
2021/10/11 16:29:20;;;;;;;4.82;0.90;;;;;;;;;;5055886;28;20027;-92
2021/10/11 16:31:46;;;;;;;2.85;1.23;;;;;;;;;;5055750;28;20131;-91
2021/10/11 16:34:11;;;;;;;9.65;1.48;;;;;;;;;;5055827;28;20047;-92
2021/10/11 16:36:37;;;;;;;6.43;1.17;;;;;;;;;;5055248;28;21187;-93
2021/10/11 16:39:03;;;;;;;10.27;1.02;;;;;;;;;;5055533;28;20012;-91
2021/10/11 16:41:28;;;;;;;3.45;0.82;;;;;;;;;;5057639;28;20013;-92
2021/10/11 16:43:53;;;;;;;3.42;1.10;;;;;;;;;;5075306;28;20020;-91
2021/10/11 16:46:18;;;;;;;3.35;0.70;;;;;;;;;;5055679;28;20021;-91
2021/10/11 16:48:44;;;;;;;8.50;1.00;;;;;;;;;;5060881;28;20483;-91
2021/10/11 16:51:09;;;;;;;4.00;1.38;;;;;;;;;;5065109;28;20092;-91
2021/10/11 16:56:18;;;;;;;4.15;0.70;;;;;;;;;;5084350;28;20147;-91